Flight Track Log - Related Links

Times and Time Zones

All times are in EDT time to prevent confusion due to time zone crossing. See the AAL1631 flight status page for this flight to view local times or setup timezone preferences in your user account.

Time Position Orientation Groundspeed Altitude Reporting Facility
EDT Latitude Longitude Course Direction KTS MPH feet Rate Location/Type
Tue 06:15:41 AM 38.8070 -77.0290 170° South 186 214 2,000  Level FlightAware ADS-B
Tue 06:16:19 AM 38.7720 -77.0280 179° South 238 274 3,000 2,100 Climbing FlightAware ADS-B
Tue 06:16:41 AM 38.7420 -77.0210 170° South 276 318 4,100 2,471 Climbing FlightAware ADS-B
Tue 06:16:53 AM 38.7300 -77.0080 140° Southeast 288 331 4,400 1,154 Climbing FlightAware ADS-B
Tue 06:17:07 AM 38.7190 -76.9920 131° Southeast 291 335 4,600 1,143 Climbing FlightAware ADS-B
Tue 06:17:35 AM 38.6970 -76.9490 123° Southeast 297 342 5,200 1,467 Climbing FlightAware ADS-B
Tue 06:17:52 AM 38.6840 -76.9250 125° Southeast 300 345 5,700 2,591 Climbing FlightAware ADS-B
Tue 06:18:19 AM 38.6600 -76.8870 129° Southeast 306 352 7,100 3,509 Climbing FlightAware ADS-B
Tue 06:18:45 AM 38.6370 -76.8490 128° Southeast 309 356 8,800 3,714 Climbing FlightAware ADS-B
Tue 06:19:01 AM 38.6230 -76.8260 128° Southeast 307 353 9,700 2,679 Climbing FlightAware ADS-B
Tue 06:19:41 AM 38.5860 -76.7660 128° Southeast 340 391 11,300 2,509 Climbing FlightAware ADS-B
Tue 06:20:51 AM 38.4830 -76.7140 158° South 353 406 14,300 2,526 Climbing FlightAware ADS-B
Tue 06:21:35 AM 38.4110 -76.7050 174° South 370 426 16,100 2,780 Climbing FlightAware ADS-B
Tue 06:22:13 AM 38.3450 -76.6970 175° South 373 429 18,100 2,857 Climbing FlightAware ADS-B
Tue 06:22:59 AM 38.2660 -76.6860 174° South 378 435 20,100 2,512 Climbing FlightAware ADS-B
Tue 06:23:39 AM 38.1970 -76.6770 174° South 383 441 21,700 2,143 Climbing FlightAware ADS-B
Tue 06:24:23 AM 38.1190 -76.6670 174° South 397 457 23,100 1,884 Climbing FlightAware ADS-B
Tue 06:25:05 AM 38.0400 -76.6560 174° South 406 467 24,400 2,049 Climbing FlightAware ADS-B
Tue 06:25:45 AM 37.9620 -76.6480 175° South 398 458 25,900 1,143 Climbing FlightAware ADS-B
Tue 06:26:29 AM 37.8850 -76.6550 184° South 388 447 26,000 643 Climbing FlightAware ADS-B
Tue 06:27:09 AM 37.8120 -76.6650 186° South 391 450 26,800 1,500 Climbing FlightAware ADS-B
Tue 06:27:49 AM 37.7390 -76.6740 186° South 393 452 28,000 1,674 Climbing FlightAware ADS-B
Tue 06:28:35 AM 37.6560 -76.6850 186° South 395 455 29,200 1,395 Climbing FlightAware ADS-B
Tue 06:29:15 AM 37.5820 -76.6940 186° South 395 455 30,000 571 Climbing FlightAware ADS-B
Tue 06:29:59 AM 37.5040 -76.7040 186° South 395 455 30,000  Level FlightAware ADS-B
Tue 06:30:42 AM 37.4270 -76.7210 190° South 390 449 30,000  Level FlightAware ADS-B
Tue 06:31:19 AM 37.3620 -76.7470 198° South 391 450 30,000 815 Level FlightAware ADS-B
Tue 06:32:03 AM 37.2870 -76.7790 199° South 389 448 31,100 1,364 Climbing FlightAware ADS-B
Tue 06:32:47 AM 37.2140 -76.8090 198° South 386 444 32,000 977 Climbing FlightAware ADS-B
Tue 06:33:29 AM 37.1410 -76.8400 199° South 383 441 32,500 1,244 Climbing FlightAware ADS-B
Tue 06:34:09 AM 37.0750 -76.8670 198° South 376 433 33,700 1,111 Climbing FlightAware ADS-B
Tue 06:34:50 AM 37.0080 -76.8950 198° South 378 435 34,000 191 Climbing FlightAware ADS-B
Tue 06:35:43 AM 36.9440 -76.9220 199° South 378 435 34,000  Level FlightAware ADS-B
Tue 06:36:38 AM 36.8290 -76.9690 198° South 376 433 34,000  Level FlightAware ADS-B
Tue 06:37:53 AM 36.7080 -77.0190 198° South 371 427 34,000  Level FlightAware ADS-B
Tue 06:38:33 AM 36.6520 -77.0420 198° South 371 427 34,000  Level FlightAware ADS-B
Tue 06:39:58 AM 36.4970 -77.1050 198° South 386 444 34,000  Level FlightAware ADS-B
Tue 06:40:41 AM 36.4330 -77.1310 198° South 388 447 34,000  Level FlightAware ADS-B
Tue 06:41:18 AM 36.3570 -77.1620 198° South 390 449 34,000  Level FlightAware ADS-B
Tue 06:42:07 AM 36.2740 -77.1960 198° South 388 447 34,000  Level FlightAware ADS-B
Tue 06:43:02 AM 36.1780 -77.2350 198° South 389 448 34,000  Level FlightAware ADS-B
Tue 06:43:42 AM 36.1110 -77.2620 198° South 389 448 34,000  Level FlightAware ADS-B
Tue 06:44:53 AM 35.9920 -77.3100 198° South 389 448 34,000  Level FlightAware ADS-B
Tue 06:45:34 AM 35.9250 -77.3370 198° South 389 448 34,000  Level FlightAware ADS-B
Tue 06:46:20 AM 35.8370 -77.3720 198° South 389 448 34,000  Level FlightAware ADS-B
Tue 06:46:58 AM 35.7750 -77.3970 198° South 389 448 34,000  Level FlightAware ADS-B
Tue 06:47:38 AM 35.7070 -77.4250 198° South 389 448 34,000  Level FlightAware ADS-B
Tue 06:48:23 AM 35.6290 -77.4560 198° South 389 448 34,000  Level FlightAware ADS-B
Tue 06:49:03 AM 35.5670 -77.4990 209° Southwest 380 437 34,000  Level FlightAware ADS-B
Tue 06:49:48 AM 35.5030 -77.5610 218° Southwest 388 447 34,000  Level FlightAware ADS-B
Tue 06:51:00 AM 35.4270 -77.6340 218° Southwest 388 447 34,000  Level FlightAware ADS-B
Tue 06:51:49 AM 35.3410 -77.7210 220° Southwest 384 442 34,000  Level FlightAware ADS-B
Tue 06:52:38 AM 35.2840 -77.7790 220° Southwest 384 442 34,000  Level FlightAware ADS-B
Tue 06:53:14 AM 35.2420 -77.8220 220° Southwest 384 442 34,000  Level FlightAware ADS-B
Tue 06:54:02 AM 35.1870 -77.8790 220° Southwest 384 442 34,000  Level FlightAware ADS-B
Tue 06:54:39 AM 35.1440 -77.9230 220° Southwest 384 442 34,000  Level FlightAware ADS-B
Tue 06:55:16 AM 35.1010 -77.9670 220° Southwest 384 442 34,000  Level FlightAware ADS-B
Tue 06:55:55 AM 35.0560 -78.0130 220° Southwest 384 442 34,000  Level FlightAware ADS-B
Tue 06:56:31 AM 35.0140 -78.0560 220° Southwest 384 442 34,000  Level FlightAware ADS-B
Tue 06:57:19 AM 34.9590 -78.1130 220° Southwest 384 442 34,000 349 Level FlightAware ADS-B
Tue 06:57:57 AM 34.8070 -78.2400 214° Southwest 400 460 34,500 1,050 Climbing FlightAware ADS-B
Tue 06:58:39 AM 34.7480 -78.2980 219° Southwest 397 457 35,400 783 Climbing FlightAware ADS-B
Tue 06:59:52 AM 34.6480 -78.3940 218° Southwest 396 456 36,000 324 Climbing FlightAware ADS-B
Tue 07:00:30 AM 34.6020 -78.4380 218° Southwest 396 456 36,000  Level FlightAware ADS-B
Tue 07:01:14 AM 34.6340 -78.4070 39° Northeast 395 455 36,000  Level FlightAware ADS-B
Tue 07:02:02 AM 34.4610 -78.5730 218° Southwest 397 457 36,000  Level FlightAware ADS-B
Tue 07:02:47 AM 34.3940 -78.6380 219° Southwest 399 459 36,000  Level FlightAware ADS-B
Tue 07:03:32 AM 34.3260 -78.7020 218° Southwest 401 461 36,000  Level FlightAware ADS-B
Tue 07:04:17 AM 34.2610 -78.7540 213° Southwest 404 465 36,000  Level FlightAware ADS-B
Tue 07:04:52 AM 34.2000 -78.7970 210° Southwest 403 464 36,000  Level FlightAware ADS-B
Tue 07:05:55 AM 34.1090 -78.8590 209° Southwest 405 466 36,000  Level FlightAware ADS-B
Tue 07:06:38 AM 34.0290 -78.9150 210° Southwest 408 470 36,000  Level FlightAware ADS-B
Tue 07:07:17 AM 33.9620 -78.9610 210° Southwest 410 472 36,000  Level FlightAware ADS-B
Tue 07:08:02 AM 33.8940 -79.0080 210° Southwest 412 474 36,000  Level FlightAware ADS-B
Tue 07:08:42 AM 33.8210 -79.0580 210° Southwest 413 475 36,000  Level FlightAware ADS-B
Tue 07:09:22 AM 33.7550 -79.1030 210° Southwest 413 475 36,000  Level FlightAware ADS-B
Tue 07:10:02 AM 33.6880 -79.1490 210° Southwest 414 476 36,000  Level FlightAware ADS-B
Tue 07:10:47 AM 33.6160 -79.1980 210° Southwest 416 479 36,000  Level FlightAware ADS-B
Tue 07:11:34 AM 33.6110 -79.2020 214° Southwest 417 480 36,000  Level FlightAware ADS-B
Tue 07:12:27 AM 33.4450 -79.3140 209° Southwest 422 486 36,000  Level FlightAware ADS-B
Tue 07:13:15 AM 33.3690 -79.3660 210° Southwest 425 489 36,000  Level FlightAware ADS-B
Tue 07:13:57 AM 33.2910 -79.4190 210° Southwest 427 491 36,000  Level FlightAware ADS-B
Tue 07:14:37 AM 33.2230 -79.4650 210° Southwest 430 495 36,000  Level FlightAware ADS-B
Tue 07:15:22 AM 33.1440 -79.5180 209° Southwest 432 497 36,000  Level FlightAware ADS-B
Tue 07:16:02 AM 33.0740 -79.5650 209° Southwest 428 493 36,000  Level FlightAware ADS-B
Tue 07:16:47 AM 32.9960 -79.6170 209° Southwest 425 489 36,000  Level FlightAware ADS-B
Tue 07:17:27 AM 32.9320 -79.6610 210° Southwest 426 490 36,000  Level FlightAware ADS-B
Tue 07:18:07 AM 32.8600 -79.7090 209° Southwest 427 491 36,000  Level FlightAware ADS-B
Tue 07:18:47 AM 32.7910 -79.7550 209° Southwest 428 493 36,000  Level FlightAware ADS-B
Tue 07:19:32 AM 32.7120 -79.8070 209° Southwest 428 493 36,000  Level FlightAware ADS-B
Tue 07:20:32 AM 32.6100 -79.8750 209° Southwest 429 494 36,000  Level FlightAware ADS-B
Tue 07:21:17 AM 32.5330 -79.9260 209° Southwest 430 495 36,000  Level FlightAware ADS-B
Tue 07:21:57 AM 32.4630 -79.9730 210° Southwest 430 495 36,000  Level FlightAware ADS-B
Tue 07:22:37 AM 32.3950 -80.0180 209° Southwest 429 494 36,000  Level FlightAware ADS-B
Tue 07:23:27 AM 32.3070 -80.0760 209° Southwest 430 495 36,000  Level FlightAware ADS-B
Tue 07:24:07 AM 32.2350 -80.1230 209° Southwest 430 495 36,000  Level FlightAware ADS-B
Tue 07:24:47 AM 32.1670 -80.1680 209° Southwest 431 496 36,000  Level FlightAware ADS-B
Tue 07:25:32 AM 32.0870 -80.2200 209° Southwest 432 497 36,000  Level FlightAware ADS-B
Tue 07:26:12 AM 32.0160 -80.2670 209° Southwest 433 498 36,000  Level FlightAware ADS-B
Tue 07:27:17 AM 31.9030 -80.3410 209° Southwest 432 497 36,000  Level FlightAware ADS-B
Tue 07:28:07 AM 31.8210 -80.3950 209° Southwest 432 497 36,000  Level FlightAware ADS-B
Tue 07:28:47 AM 31.7500 -80.4410 209° Southwest 433 498 36,000  Level FlightAware ADS-B
Tue 07:29:28 AM 31.6840 -80.4840 209° Southwest 433 498 36,000  Level FlightAware ADS-B
Tue 07:30:05 AM 31.6290 -80.5200 209° Southwest 433 498 36,000  Level FlightAware ADS-B
Tue 07:30:48 AM 31.5640 -80.5610 208° Southwest 433 498 36,000  Level FlightAware ADS-B
Tue 07:31:37 AM 31.4910 -80.6090 209° Southwest 433 498 36,000  Level FlightAware ADS-B
Tue 07:32:13 AM 31.4380 -80.6440 209° Southwest 433 498 36,000  Level FlightAware ADS-B
Tue 07:33:02 AM 31.3650 -80.6910 209° Southwest 433 498 36,000  Level FlightAware ADS-B
Tue 07:33:38 AM 31.3110 -80.7260 209° Southwest 433 498 36,000  Level FlightAware ADS-B
Tue 07:34:15 AM 31.2560 -80.7620 209° Southwest 433 498 36,000  Level FlightAware ADS-B
Tue 07:35:04 AM 31.1830 -80.8090 209° Southwest 433 498 36,000  Level FlightAware ADS-B
Tue 07:35:39 AM 31.1310 -80.8430 209° Southwest 433 498 36,000  Level FlightAware ADS-B
Tue 07:36:25 AM 31.0630 -80.8870 209° Southwest 433 498 36,000  Level FlightAware ADS-B
Tue 07:37:11 AM 30.9940 -80.9310 209° Southwest 433 498 36,000  Level FlightAware ADS-B
Tue 07:37:48 AM 30.9390 -80.9670 209° Southwest 433 498 36,000  Level FlightAware ADS-B
Tue 07:38:37 AM 30.8660 -81.0140 209° Southwest 433 498 36,000  Level FlightAware ADS-B
Tue 07:43:00 AM 29.9850 -80.7240 164° South 474 545 36,000  Level FlightAware ADS-B
Tue 07:43:39 AM 29.9130 -80.7280 183° South 474 545 36,000  Level FlightAware ADS-B
Tue 07:44:25 AM 29.8270 -80.7330 183° South 474 545 36,000  Level FlightAware ADS-B
Tue 07:45:01 AM 29.7600 -80.7370 183° South 474 545 36,000  Level FlightAware ADS-B
Tue 07:45:42 AM 29.6840 -80.7420 183° South 474 545 36,000  Level FlightAware ADS-B
Tue 07:46:30 AM 29.5950 -80.7470 183° South 474 545 36,000  Level FlightAware ADS-B
Tue 07:47:08 AM 29.5240 -80.7510 183° South 474 545 36,000  Level FlightAware ADS-B
Tue 07:47:57 AM 29.4330 -80.7570 183° South 474 545 36,000  Level FlightAware ADS-B
Tue 07:48:33 AM 29.3660 -80.7610 183° South 474 545 36,000  Level FlightAware ADS-B
Tue 07:49:21 AM 29.2760 -80.7660 183° South 474 545 36,000  Level FlightAware ADS-B
Tue 07:49:56 AM 29.2110 -80.7700 183° South 474 545 36,000  Level FlightAware ADS-B
Tue 07:50:43 AM 29.1240 -80.7750 183° South 474 545 36,000  Level FlightAware ADS-B
Tue 07:51:19 AM 29.0570 -80.7790 183° South 474 545 36,000  Level FlightAware ADS-B
Tue 07:51:47 AM 28.8400 -80.6820 159° South 474 545 36,000  Level FlightAware ADS-B
Tue 07:52:32 AM 28.7410 -80.6590 168° South 473 544 36,000  Level FlightAware ADS-B
Tue 07:53:32 AM 28.6140 -80.6300 169° South 472 543 36,000  Level FlightAware ADS-B
Tue 07:54:13 AM 28.5240 -80.6100 169° South 472 543 36,000  Level FlightAware ADS-B
Tue 07:55:35 AM 28.3650 -80.5730 168° South 473 544 36,000  Level FlightAware ADS-B
Tue 07:56:20 AM 28.2600 -80.5490 169° South 474 545 36,000  Level FlightAware ADS-B
Tue 07:57:00 AM 28.1640 -80.5280 169° South 474 545 36,000  Level FlightAware ADS-B
Tue 07:57:38 AM 28.0820 -80.5100 169° South 473 544 36,000  Level FlightAware ADS-B
Tue 07:58:56 AM 27.9380 -80.4770 169° South 472 543 36,000  Level FlightAware ADS-B
Tue 07:59:33 AM 27.8710 -80.4610 168° South 472 543 36,000  Level FlightAware ADS-B
Tue 08:00:19 AM 27.7880 -80.4410 168° South 472 543 36,000  Level FlightAware ADS-B
Tue 08:00:55 AM 27.7220 -80.4250 168° South 472 543 36,000  Level FlightAware ADS-B
Tue 08:01:43 AM 27.6350 -80.4040 168° South 472 543 36,000  Level FlightAware ADS-B
Tue 08:02:19 AM 27.5700 -80.3880 168° South 472 543 36,000 -8,000 Level FlightAware ADS-B
Tue 08:02:58 AM 27.4050 -80.3600 171° South 441 507 26,000 -7,448 Descending FlightAware ADS-B
Tue 08:03:46 AM 27.3160 -80.3390 168° South 442 509 25,200 -1,290 Descending FlightAware ADS-B
Tue 08:04:31 AM 27.2340 -80.3170 167° South 442 509 24,000 -878 Descending FlightAware ADS-B
Tue 08:05:08 AM 27.1710 -80.3020 168° South 442 509 24,000  Level FlightAware ADS-B
Tue 08:05:48 AM 27.1030 -80.2860 168° South 442 509 24,000  Level FlightAware ADS-B
Tue 08:06:36 AM 27.0210 -80.2660 168° South 442 509 24,000 -2,520 Level FlightAware ADS-B
Tue 08:07:28 AM 26.8950 -80.1730 147° Southeast 409 471 19,800 -3,652 Descending FlightAware ADS-B
Tue 08:08:08 AM 26.8260 -80.1450 160° South 392 451 18,400 -1,976 Descending FlightAware ADS-B
Tue 08:08:53 AM 26.7430 -80.1120 160° South 376 433 17,000 -1,835 Descending FlightAware ADS-B
Tue 08:09:33 AM 26.6760 -80.0870 162° South 368 423 15,800 -1,725 Descending FlightAware ADS-B
Tue 08:10:13 AM 26.6100 -80.0740 170° South 372 428 14,700 -1,482 Descending FlightAware ADS-B
Tue 08:10:58 AM 26.5340 -80.0610 171° South 356 410 13,700 -1,049 Descending FlightAware ADS-B
Tue 08:11:56 AM 26.4400 -80.0450 171° South 342 394 12,900 -772 Descending FlightAware ADS-B
Tue 08:12:39 AM 26.3720 -80.0360 173° South 340 391 12,400 -847 Descending FlightAware ADS-B
Tue 08:13:21 AM 26.3060 -80.0440 186° South 337 388 11,700 -1,244 Descending FlightAware ADS-B
Tue 08:14:01 AM 26.2440 -80.0540 188° South 334 384 10,700 -1,437 Descending FlightAware ADS-B
Tue 08:14:32 AM 26.1980 -80.0600 187° South 328 377 10,000 -828 Descending FlightAware ADS-B
Tue 08:14:59 AM 26.1570 -80.0670 189° South 325 374 9,900 -128 Descending FlightAware ADS-B
Tue 08:15:19 AM 26.1270 -80.0710 187° South 324 373 9,900  Level FlightAware ADS-B
Tue 08:15:55 AM 26.0750 -80.0790 188° South 293 337 9,900  Level FlightAware ADS-B
Tue 08:16:23 AM 26.0400 -80.0840 187° South 268 308 9,900 -453 Level FlightAware ADS-B
Tue 08:16:48 AM 26.0100 -80.0880 187° South 264 304 9,500 -1,000 Descending FlightAware ADS-B
Tue 08:17:17 AM 25.9740 -80.0950 190° South 267 307 9,000 -800 Descending FlightAware ADS-B
Tue 08:17:33 AM 25.9570 -80.1070 212° Southwest 268 308 8,900 -429 Descending FlightAware ADS-B
Tue 08:17:45 AM 25.9490 -80.1210 238° Southwest 264 304 8,800  Descending FlightAware ADS-B
Tue 08:18:01 AM 25.9390 -80.1400 240° Southwest 264 304 8,900 207 Climbing FlightAware ADS-B
Tue 08:18:14 AM 25.9360 -80.1550 257° West 264 304 8,900  Level FlightAware ADS-B
Tue 08:18:41 AM 25.9380 -80.1920 273° West 262 302 8,900  Level FlightAware ADS-B
Tue 08:18:57 AM 25.9400 -80.2130 276° West 261 300 8,900 -300 Level FlightAware ADS-B
Tue 08:19:21 AM 25.9420 -80.2450 274° West 259 298 8,700 -857 Descending FlightAware ADS-B
Tue 08:19:39 AM 25.9440 -80.2690 275° West 260 299 8,300 -1,227 Descending FlightAware ADS-B
Tue 08:20:05 AM 25.9460 -80.3020 274° West 253 291 7,800 -1,412 Descending FlightAware ADS-B
Tue 08:20:30 AM 25.9520 -80.3350 281° West 254 292 7,100 -1,667 Descending FlightAware ADS-B
Tue 08:20:59 AM 25.9600 -80.3700 284° West 252 290 6,300 -1,552 Descending FlightAware ADS-B
Tue 08:21:28 AM 25.9690 -80.4060 286° West 245 282 5,600 -1,636 Descending FlightAware ADS-B
Tue 08:21:43 AM 25.9730 -80.4240 284° West 246 283 5,100 -2,100 Descending FlightAware ADS-B
Tue 08:22:08 AM 25.9800 -80.4560 284° West 243 280 4,200 -1,855 Descending FlightAware ADS-B
Tue 08:22:38 AM 25.9650 -80.4870 242° Southwest 228 262 3,400 -1,200 Descending FlightAware ADS-B
Tue 08:22:53 AM 25.9510 -80.4960 210° Southwest 221 254 3,300 -462 Descending FlightAware ADS-B
Tue 08:23:04 AM 25.9410 -80.4970 185° South 213 245 3,200 -585 Descending FlightAware ADS-B
Tue 08:23:34 AM 25.9170 -80.4820 151° Southeast 190 219 2,900 -500 Descending FlightAware ADS-B
Tue 08:23:52 AM 25.9040 -80.4720 145° Southeast 184 212 2,800 -571 Descending FlightAware ADS-B
Tue 08:24:16 AM 25.8870 -80.4590 145° Southeast 181 208 2,500 -808 Descending FlightAware ADS-B
Tue 08:24:44 AM 25.8700 -80.4410 136° Southeast 182 209 2,100 -878 Descending FlightAware ADS-B
Tue 08:24:57 AM 25.8650 -80.4300 117° Southeast 183 211 1,900 -462 Descending FlightAware ADS-B
Tue 08:25:49 AM 25.8440 -80.3890 120° Southeast 162 186 1,600 -525 Descending FlightAware ADS-B
Tue 08:26:17 AM 25.8340 -80.3700 120° Southeast 151 174 1,200 -857 Descending FlightAware ADS-B
Tue 08:26:45 AM 25.8250 -80.3520 119° Southeast 145 167 800 -778 Descending FlightAware ADS-B
Tue 08:27:11 AM 25.8160 -80.3350 120° Southeast 144 166 500 -679 Descending FlightAware ADS-B
Tue 08:27:38 AM 25.8070 -80.3180 120° Southeast 145 167 200 -667 Descending FlightAware ADS-B
Tue 08:27:55 AM 25.8020 -80.3070 117° Southeast 148 170 -706 Descending FlightAware ADS-B
Tue 08:28:22 AM 25.7940 -80.2910 119° Southeast 92 106  Level FlightAware ADS-B
Tue 08:28:36 AM 25.7920 -80.2870 119° Southeast 40 46  Level FlightAware ADS-B
Tue 08:28:52 AM 25.7910 -80.2850 119° Southeast 23 26  Level FlightAware ADS-B

Login

Don't have an account? Register now (free) for customized features, flight alerts, and more!